createdAt,value
2022-09-28T00:02:25.486Z,11.60
2022-09-28T00:04:53.482Z,11.50
2022-09-28T00:07:21.404Z,11.50
2022-09-28T00:09:49.221Z,11.60
2022-09-28T00:12:17.088Z,11.50
2022-09-28T00:14:45.783Z,11.60
2022-09-28T00:17:16.797Z,11.60
2022-09-28T00:19:46.038Z,11.60
2022-09-28T00:22:13.873Z,11.60
2022-09-28T00:24:41.700Z,11.50
2022-09-28T00:27:09.563Z,11.60
2022-09-28T00:29:38.599Z,11.50
2022-09-28T00:32:08.877Z,11.50
2022-09-28T00:34:39.855Z,11.50
2022-09-28T00:37:09.128Z,11.50
2022-09-28T00:39:38.206Z,11.50
2022-09-28T00:42:14.262Z,11.50
2022-09-28T00:44:48.481Z,11.50
2022-09-28T00:47:45.388Z,11.50
2022-09-28T00:50:21.415Z,11.60
2022-09-28T00:52:54.678Z,11.50
2022-09-28T00:55:28.978Z,11.50
2022-09-28T00:57:59.468Z,11.50
2022-09-28T01:00:27.472Z,11.50
2022-09-28T01:02:56.227Z,11.50
2022-09-28T01:05:26.175Z,11.40
2022-09-28T01:07:56.226Z,11.50
2022-09-28T01:10:24.140Z,11.40
2022-09-28T01:12:51.999Z,11.40
2022-09-28T01:15:21.819Z,11.40
2022-09-28T01:18:06.022Z,11.50
2022-09-28T01:20:55.771Z,11.50
2022-09-28T01:23:49.672Z,11.40
2022-09-28T01:26:53.448Z,11.50
2022-09-28T01:29:33.669Z,11.50
2022-09-28T01:32:10.631Z,11.50
2022-09-28T01:34:43.617Z,11.50
2022-09-28T01:37:14.128Z,11.40
2022-09-28T01:39:46.629Z,11.50
2022-09-28T01:42:21.377Z,11.50
2022-09-28T01:44:52.907Z,11.50
2022-09-28T01:47:23.876Z,11.50
2022-09-28T01:49:57.697Z,11.50
2022-09-28T01:52:29.420Z,11.40
2022-09-28T01:55:01.218Z,11.40
2022-09-28T01:57:35.432Z,11.50
2022-09-28T02:00:07.365Z,11.50
2022-09-28T02:02:40.697Z,11.50
2022-09-28T02:05:12.903Z,11.40
2022-09-28T02:07:45.682Z,11.50
2022-09-28T02:10:17.474Z,11.50
2022-09-28T02:12:49.967Z,11.50
2022-09-28T02:15:21.438Z,11.50
2022-09-28T02:17:50.002Z,11.50
2022-09-28T02:20:18.589Z,11.50
2022-09-28T02:22:50.261Z,11.40
2022-09-28T02:25:27.030Z,11.50
2022-09-28T02:28:00.917Z,11.50
2022-09-28T02:30:30.626Z,11.50
2022-09-28T02:33:14.945Z,11.50
2022-09-28T02:35:44.108Z,11.50
2022-09-28T02:38:13.548Z,11.50
2022-09-28T02:40:45.229Z,11.50
2022-09-28T02:43:20.602Z,11.50
2022-09-28T02:46:07.230Z,11.50
2022-09-28T02:49:00.112Z,11.50
2022-09-28T02:51:44.935Z,11.50
2022-09-28T02:54:24.628Z,11.50
2022-09-28T02:57:02.951Z,11.50
2022-09-28T02:59:47.059Z,11.60
2022-09-28T03:02:23.668Z,11.50
2022-09-28T03:05:13.058Z,11.50
2022-09-28T03:07:47.478Z,11.50
2022-09-28T03:10:20.765Z,11.50
2022-09-28T03:12:49.969Z,11.50
2022-09-28T03:15:24.967Z,11.60
2022-09-28T03:17:53.008Z,11.60
2022-09-28T03:20:21.183Z,11.60
2022-09-28T03:23:06.443Z,11.50
2022-09-28T03:25:36.834Z,11.60
2022-09-28T03:28:04.722Z,11.60
2022-09-28T03:30:33.948Z,11.60
2022-09-28T03:33:03.068Z,11.60
2022-09-28T03:35:30.902Z,11.60
2022-09-28T03:37:58.918Z,11.60
2022-09-28T03:40:26.818Z,11.60
2022-09-28T03:42:55.028Z,11.60
2022-09-28T03:45:22.875Z,11.60
2022-09-28T03:47:52.249Z,11.60
2022-09-28T03:50:20.105Z,11.60
2022-09-28T03:52:47.939Z,11.50
2022-09-28T03:55:15.878Z,11.50
2022-09-28T03:57:43.721Z,11.60
2022-09-28T04:00:12.816Z,11.60
2022-09-28T04:02:40.683Z,11.50
2022-09-28T04:05:10.313Z,11.50
2022-09-28T04:07:38.177Z,11.50
2022-09-28T04:10:06.653Z,11.50
2022-09-28T04:12:34.514Z,11.50
2022-09-28T04:15:02.360Z,11.50
2022-09-28T04:17:30.237Z,11.50
2022-09-28T04:19:58.080Z,11.50
2022-09-28T04:22:27.263Z,11.50
2022-09-28T04:24:55.092Z,11.50
2022-09-28T04:27:40.313Z,11.50
2022-09-28T04:30:09.656Z,11.60
2022-09-28T04:32:37.655Z,11.50
2022-09-28T04:35:06.288Z,11.50
2022-09-28T04:37:35.501Z,11.50
2022-09-28T04:40:03.413Z,11.50
2022-09-28T04:42:31.251Z,11.50
2022-09-28T04:45:00.856Z,11.50
2022-09-28T04:47:30.458Z,11.50
2022-09-28T04:49:58.395Z,11.50
2022-09-28T04:52:26.724Z,11.40
2022-09-28T04:54:55.895Z,11.40
2022-09-28T04:57:23.733Z,11.40
2022-09-28T04:59:51.558Z,11.40
2022-09-28T05:02:20.368Z,11.40
2022-09-28T05:04:48.286Z,11.40
2022-09-28T05:07:16.154Z,11.40
2022-09-28T05:09:43.993Z,11.40
2022-09-28T05:12:13.232Z,11.40
2022-09-28T05:14:42.119Z,11.40
2022-09-28T05:17:11.346Z,11.40
2022-09-28T05:19:39.210Z,11.40
2022-09-28T05:22:11.333Z,11.40
2022-09-28T05:24:39.223Z,11.40
2022-09-28T05:27:07.070Z,11.40
2022-09-28T05:29:36.359Z,11.40
2022-09-28T05:32:04.382Z,11.40
2022-09-28T05:34:32.258Z,11.30
2022-09-28T05:37:00.113Z,11.40
2022-09-28T05:39:27.956Z,11.40
2022-09-28T05:41:57.811Z,11.40
2022-09-28T05:44:25.891Z,11.40
2022-09-28T05:46:55.475Z,11.40
2022-09-28T05:49:23.334Z,11.40
2022-09-28T05:51:51.177Z,11.40
2022-09-28T05:54:19.190Z,11.40
2022-09-28T05:56:47.132Z,11.40
2022-09-28T05:59:15.569Z,11.40
2022-09-28T06:01:43.663Z,11.40
2022-09-28T06:04:14.602Z,11.30
2022-09-28T06:06:43.073Z,11.40
2022-09-28T06:09:11.130Z,11.30
2022-09-28T06:11:38.983Z,11.40
2022-09-28T06:14:07.583Z,11.40
2022-09-28T06:16:38.269Z,11.40
2022-09-28T06:19:09.781Z,11.40
2022-09-28T06:21:39.389Z,11.40
2022-09-28T06:24:07.423Z,11.40
2022-09-28T06:26:35.322Z,11.30
2022-09-28T06:29:03.343Z,11.40
2022-09-28T06:31:31.279Z,11.30
2022-09-28T06:34:02.055Z,11.40
2022-09-28T06:36:31.202Z,11.40
2022-09-28T06:39:00.537Z,11.40
2022-09-28T06:41:28.450Z,11.40
2022-09-28T06:43:56.373Z,11.40
2022-09-28T06:46:25.618Z,11.40
2022-09-28T06:48:54.543Z,11.40
2022-09-28T06:51:22.419Z,11.40
2022-09-28T06:53:53.860Z,11.40
2022-09-28T06:56:23.140Z,11.40
2022-09-28T06:58:51.018Z,11.40
2022-09-28T07:01:18.975Z,11.40
2022-09-28T07:03:47.222Z,11.40
2022-09-28T07:06:15.120Z,11.40
2022-09-28T07:08:48.249Z,11.40
2022-09-28T07:11:22.441Z,11.40
2022-09-28T07:13:51.529Z,11.50
2022-09-28T07:16:24.136Z,11.40
2022-09-28T07:18:54.518Z,11.40
2022-09-28T07:21:29.734Z,11.50
2022-09-28T07:23:58.309Z,11.40
2022-09-28T07:26:27.557Z,11.50
2022-09-28T07:28:56.111Z,11.50
2022-09-28T07:31:25.444Z,11.50
2022-09-28T07:33:53.913Z,11.50
2022-09-28T07:36:22.731Z,11.50
2022-09-28T07:38:50.858Z,11.50
2022-09-28T07:41:22.506Z,11.50
2022-09-28T07:43:51.742Z,11.50
2022-09-28T07:46:21.236Z,11.60
2022-09-28T07:48:51.645Z,11.60
2022-09-28T07:51:21.193Z,11.60
2022-09-28T07:53:49.111Z,11.70
2022-09-28T07:56:19.583Z,11.70
2022-09-28T07:58:48.533Z,11.70
2022-09-28T08:01:19.188Z,11.70
2022-09-28T08:03:48.050Z,11.80
2022-09-28T08:06:18.000Z,11.80
2022-09-28T08:08:46.006Z,11.80
2022-09-28T08:11:15.482Z,11.80
2022-09-28T08:13:43.990Z,11.80
2022-09-28T08:16:13.525Z,11.80
2022-09-28T08:18:42.843Z,11.80
2022-09-28T08:21:29.394Z,11.80
2022-09-28T08:23:57.678Z,11.80
2022-09-28T08:26:25.709Z,11.80
2022-09-28T08:28:53.668Z,11.80
2022-09-28T08:31:21.619Z,11.80
2022-09-28T08:33:53.749Z,11.90
2022-09-28T08:36:21.820Z,11.90
2022-09-28T08:38:49.697Z,11.90
2022-09-28T08:41:24.124Z,12.00
2022-09-28T08:44:03.790Z,12.00
2022-09-28T08:46:36.561Z,12.00
2022-09-28T08:49:26.372Z,12.00
2022-09-28T08:52:00.451Z,12.00
2022-09-28T08:54:38.974Z,12.00
2022-09-28T08:57:13.088Z,11.90
2022-09-28T08:59:49.386Z,11.90
2022-09-28T09:02:22.376Z,11.90
2022-09-28T09:04:52.605Z,12.00
2022-09-28T09:07:59.160Z,12.10
2022-09-28T09:10:47.491Z,12.20
2022-09-28T09:15:48.143Z,12.30
2022-09-28T09:18:22.377Z,12.40
2022-09-28T09:20:54.060Z,12.40
2022-09-28T09:23:29.932Z,12.40
2022-09-28T09:26:00.835Z,12.40
2022-09-28T09:28:36.117Z,12.50
2022-09-28T09:31:08.988Z,12.50
2022-09-28T09:33:53.552Z,12.60
2022-09-28T09:36:29.024Z,12.70
2022-09-28T09:39:00.954Z,12.80
2022-09-28T09:41:36.510Z,12.80
2022-09-28T09:44:17.453Z,12.90
2022-09-28T09:46:48.010Z,13.00
2022-09-28T09:49:17.245Z,13.10
2022-09-28T09:51:48.721Z,13.10
2022-09-28T09:54:22.036Z,13.20
2022-09-28T09:56:53.236Z,13.30
2022-09-28T09:59:24.231Z,13.30
2022-09-28T10:01:53.014Z,13.30
2022-09-28T10:04:21.931Z,13.30
2022-09-28T10:06:52.564Z,13.40
2022-09-28T10:09:23.524Z,13.40
2022-09-28T10:11:52.131Z,13.40
2022-09-28T10:14:21.430Z,13.50
2022-09-28T10:16:50.679Z,13.50
2022-09-28T10:21:51.937Z,13.50
2022-09-28T10:24:30.716Z,13.50
2022-09-28T10:27:06.211Z,13.50
2022-09-28T10:29:45.170Z,13.40
2022-09-28T10:32:22.123Z,13.30
2022-09-28T10:34:51.271Z,13.40
2022-09-28T10:37:20.845Z,13.40
2022-09-28T10:39:54.177Z,13.40
2022-09-28T10:42:29.712Z,13.30
2022-09-28T10:45:01.911Z,13.50
2022-09-28T10:47:32.600Z,13.70
2022-09-28T10:50:01.281Z,13.90
2022-09-28T10:52:36.976Z,14.10
2022-09-28T10:55:28.585Z,14.30
2022-09-28T10:57:56.617Z,14.40
2022-09-28T11:00:34.975Z,14.40
2022-09-28T11:03:03.388Z,14.40
2022-09-28T11:05:31.399Z,14.40
2022-09-28T11:08:05.872Z,14.40
2022-09-28T11:10:34.665Z,14.50
2022-09-28T11:13:02.613Z,14.70
2022-09-28T11:15:33.049Z,14.80
2022-09-28T11:18:21.265Z,15.00
2022-09-28T11:20:49.543Z,15.10
2022-09-28T11:23:22.373Z,15.20
2022-09-28T11:26:02.931Z,15.30
2022-09-28T11:28:33.545Z,15.40
2022-09-28T11:31:02.494Z,15.50
2022-09-28T11:33:33.461Z,15.40
2022-09-28T11:36:14.989Z,15.50
2022-09-28T11:38:54.803Z,15.70
2022-09-28T11:41:48.020Z,15.90
2022-09-28T11:44:35.514Z,16.20
2022-09-28T11:47:17.165Z,16.80
2022-09-28T11:49:46.246Z,17.30
2022-09-28T11:52:17.585Z,17.70
2022-09-28T11:54:51.769Z,18.10
2022-09-28T11:57:25.102Z,18.40
2022-09-28T11:59:56.460Z,18.60
2022-09-28T12:02:25.891Z,18.60
2022-09-28T12:04:55.793Z,18.70
2022-09-28T12:07:26.005Z,18.50
2022-09-28T12:09:59.911Z,18.10
2022-09-28T12:12:32.318Z,17.90
2022-09-28T12:15:03.914Z,17.90
2022-09-28T12:17:37.315Z,18.20
2022-09-28T12:20:13.132Z,18.20
2022-09-28T12:22:46.838Z,18.40
2022-09-28T12:25:20.493Z,18.60
2022-09-28T12:27:52.125Z,18.70
2022-09-28T12:30:21.219Z,18.70
2022-09-28T12:32:50.784Z,18.80
2022-09-28T12:35:29.586Z,18.70
2022-09-28T12:38:15.438Z,18.90
2022-09-28T12:40:51.749Z,19.20
2022-09-28T12:43:49.846Z,19.40
2022-09-28T12:46:34.942Z,19.70
2022-09-28T12:52:31.844Z,19.80
2022-09-28T12:55:24.134Z,19.70
2022-09-28T12:58:04.230Z,19.60
2022-09-28T13:00:40.995Z,19.30
2022-09-28T13:03:31.561Z,19.20
2022-09-28T13:06:17.016Z,19.10
2022-09-28T13:08:58.112Z,18.80
2022-09-28T13:11:34.340Z,18.60
2022-09-28T13:14:26.809Z,18.50
2022-09-28T13:17:00.754Z,18.30
2022-09-28T13:19:37.052Z,18.30
2022-09-28T13:22:17.908Z,18.20
2022-09-28T13:24:47.427Z,18.10
2022-09-28T13:27:29.868Z,17.90
2022-09-28T13:30:01.163Z,17.80
2022-09-28T13:32:31.515Z,17.70
2022-09-28T13:35:02.047Z,17.50
2022-09-28T13:37:30.749Z,17.30
2022-09-28T13:39:59.712Z,17.10
2022-09-28T13:43:00.162Z,16.90
2022-09-28T13:45:56.688Z,16.40
2022-09-28T13:48:35.647Z,16.10
2022-09-28T13:51:18.168Z,15.70
2022-09-28T13:54:03.972Z,15.50
2022-09-28T13:56:38.893Z,15.50
2022-09-28T13:59:19.588Z,15.40
2022-09-28T14:01:55.942Z,15.50
2022-09-28T14:04:25.433Z,15.50
2022-09-28T14:06:57.497Z,15.50
2022-09-28T14:09:41.928Z,15.50
2022-09-28T14:12:31.153Z,15.40
2022-09-28T14:14:59.119Z,15.40
2022-09-28T14:17:59.304Z,15.40
2022-09-28T14:20:31.292Z,15.30
2022-09-28T14:23:25.205Z,15.30
2022-09-28T14:26:21.591Z,15.30
2022-09-28T14:29:05.211Z,15.30
2022-09-28T14:31:34.996Z,15.30
2022-09-28T14:34:08.052Z,15.20
2022-09-28T14:36:59.648Z,15.20
2022-09-28T14:39:48.983Z,15.10
2022-09-28T14:42:21.628Z,15.10
2022-09-28T14:45:40.833Z,15.10
2022-09-28T14:48:22.511Z,15.10
2022-09-28T14:50:55.706Z,15.10
2022-09-28T14:53:25.780Z,15.10
2022-09-28T14:55:58.669Z,15.10
2022-09-28T14:58:29.819Z,15.10
2022-09-28T15:01:06.205Z,15.10
2022-09-28T15:03:36.405Z,15.10
2022-09-28T15:06:05.871Z,15.10
2022-09-28T15:08:38.425Z,15.00
2022-09-28T15:11:07.898Z,15.00
2022-09-28T15:13:36.142Z,15.00
2022-09-28T15:16:09.825Z,15.00
2022-09-28T15:18:58.111Z,14.90
2022-09-28T15:21:34.511Z,14.80
2022-09-28T15:24:02.563Z,14.70
2022-09-28T15:26:32.706Z,14.70
2022-09-28T15:29:03.034Z,14.60
2022-09-28T15:31:37.336Z,14.60
2022-09-28T15:34:22.795Z,14.60
2022-09-28T15:36:56.360Z,14.50
2022-09-28T15:39:31.827Z,14.40
2022-09-28T15:42:00.923Z,14.40
2022-09-28T15:44:33.372Z,14.40
2022-09-28T15:47:10.566Z,14.40
2022-09-28T15:49:42.762Z,14.30
2022-09-28T15:52:27.777Z,14.30
2022-09-28T15:54:56.252Z,14.30
2022-09-28T15:57:36.905Z,14.20
2022-09-28T16:00:08.207Z,14.20
2022-09-28T16:02:36.751Z,14.10
2022-09-28T16:05:05.657Z,14.10
2022-09-28T16:07:39.378Z,14.00
2022-09-28T16:10:33.450Z,14.00
2022-09-28T16:13:15.986Z,13.90
2022-09-28T16:15:44.177Z,13.90
2022-09-28T16:18:22.114Z,13.90
2022-09-28T16:20:52.323Z,13.80
2022-09-28T16:23:27.652Z,13.80
2022-09-28T16:26:00.150Z,13.70
2022-09-28T16:28:51.711Z,13.70
2022-09-28T16:31:29.779Z,13.60
2022-09-28T16:34:01.167Z,13.50
2022-09-28T16:36:39.557Z,13.50
2022-09-28T16:39:09.758Z,13.40
2022-09-28T16:41:39.705Z,13.40
2022-09-28T16:44:16.501Z,13.30
2022-09-28T16:46:45.835Z,13.20
2022-09-28T16:49:18.668Z,13.10
2022-09-28T16:51:47.990Z,13.00
2022-09-28T16:54:36.827Z,13.00
2022-09-28T16:57:06.677Z,12.90
2022-09-28T16:59:34.794Z,12.80
2022-09-28T17:02:02.658Z,12.70
2022-09-28T17:04:30.508Z,12.60
2022-09-28T17:06:58.661Z,12.60
2022-09-28T17:09:28.086Z,12.50
2022-09-28T17:11:56.638Z,12.40
2022-09-28T17:14:25.153Z,12.40
2022-09-28T17:17:13.701Z,12.30
2022-09-28T17:19:42.604Z,12.30
2022-09-28T17:22:10.549Z,12.30
2022-09-28T17:24:39.869Z,12.30
2022-09-28T17:27:11.507Z,12.20
2022-09-28T17:29:39.355Z,12.20
2022-09-28T17:32:13.019Z,12.20
2022-09-28T17:34:40.850Z,12.10
2022-09-28T17:37:10.243Z,12.10
2022-09-28T17:39:39.434Z,12.10
2022-09-28T17:42:07.422Z,12.00
2022-09-28T17:44:35.273Z,12.00
2022-09-28T17:47:03.585Z,12.00
2022-09-28T17:49:31.578Z,11.90
2022-09-28T17:51:59.474Z,11.80
2022-09-28T17:54:27.352Z,11.80
2022-09-28T17:56:56.556Z,11.70
2022-09-28T17:59:24.447Z,11.70
2022-09-28T18:01:52.373Z,11.60
2022-09-28T18:04:47.241Z,11.60
2022-09-28T18:07:08.225Z,11.50
2022-09-28T18:09:36.085Z,11.50
2022-09-28T18:12:06.371Z,11.50
2022-09-28T18:14:35.683Z,11.40
2022-09-28T18:17:04.319Z,11.50
2022-09-28T18:19:32.626Z,11.40
2022-09-28T18:22:01.312Z,11.40
2022-09-28T18:24:29.349Z,11.40
2022-09-28T18:26:57.321Z,11.40
2022-09-28T18:29:29.907Z,11.40
2022-09-28T18:32:00.190Z,11.40
2022-09-28T18:34:28.063Z,11.30
2022-09-28T18:36:56.038Z,11.30
2022-09-28T18:39:25.122Z,11.30
2022-09-28T18:41:53.049Z,11.30
2022-09-28T18:44:21.041Z,11.30
2022-09-28T18:46:51.526Z,11.20
2022-09-28T18:49:19.554Z,11.20
2022-09-28T18:51:47.732Z,11.10
2022-09-28T18:54:15.963Z,11.10
2022-09-28T18:56:43.971Z,11.10
2022-09-28T18:59:13.479Z,11.10
2022-09-28T19:01:43.247Z,11.00
2022-09-28T19:04:13.475Z,11.00
2022-09-28T19:06:44.348Z,11.00
2022-09-28T19:09:13.084Z,11.00
2022-09-28T19:11:41.141Z,11.00
2022-09-28T19:14:14.886Z,11.00
2022-09-28T19:16:44.112Z,11.00
2022-09-28T19:19:16.015Z,11.00
2022-09-28T19:21:44.326Z,11.00
2022-09-28T19:24:15.252Z,11.00
2022-09-28T19:26:43.944Z,11.00
2022-09-28T19:29:12.175Z,11.00
2022-09-28T19:31:40.594Z,11.00
2022-09-28T19:34:11.794Z,11.00
2022-09-28T19:36:43.458Z,11.00
2022-09-28T19:39:14.965Z,11.00
2022-09-28T19:41:49.382Z,11.00
2022-09-28T19:44:24.708Z,11.00
2022-09-28T19:46:54.682Z,11.00
2022-09-28T19:49:23.774Z,11.00
2022-09-28T19:52:13.897Z,11.00
2022-09-28T19:54:43.854Z,11.00
2022-09-28T19:57:12.671Z,10.90
2022-09-28T19:59:40.539Z,10.90
2022-09-28T20:02:11.260Z,10.90
2022-09-28T20:04:39.180Z,10.90
2022-09-28T20:07:08.472Z,10.90
2022-09-28T20:09:36.404Z,10.80
2022-09-28T20:12:04.501Z,10.80
2022-09-28T20:14:36.598Z,10.80
2022-09-28T20:17:07.453Z,10.80
2022-09-28T20:19:35.337Z,10.80
2022-09-28T20:22:03.512Z,10.70
2022-09-28T20:24:33.215Z,10.70
2022-09-28T20:27:01.863Z,10.60
2022-09-28T20:29:31.529Z,10.60
2022-09-28T20:32:00.304Z,10.60
2022-09-28T20:34:28.345Z,10.60
2022-09-28T20:36:56.271Z,10.50
2022-09-28T20:39:24.164Z,10.50
2022-09-28T20:41:53.575Z,10.50
2022-09-28T20:44:21.606Z,10.50
2022-09-28T20:46:51.384Z,10.50
2022-09-28T20:49:19.369Z,10.50
2022-09-28T20:51:47.257Z,10.50
2022-09-28T20:54:15.174Z,10.50
2022-09-28T20:56:43.073Z,10.50
2022-09-28T20:59:13.429Z,10.50
2022-09-28T21:01:41.818Z,10.60
2022-09-28T21:04:11.083Z,10.60
2022-09-28T21:06:40.537Z,10.60
2022-09-28T21:09:10.220Z,10.60
2022-09-28T21:11:38.607Z,10.60
2022-09-28T21:14:08.091Z,10.60
2022-09-28T21:16:37.379Z,10.60
2022-09-28T21:19:05.722Z,10.60
2022-09-28T21:21:33.589Z,10.60
2022-09-28T21:24:02.021Z,10.60
2022-09-28T21:26:31.183Z,10.60
2022-09-28T21:29:01.076Z,10.50
2022-09-28T21:31:31.335Z,10.50
2022-09-28T21:34:00.951Z,10.60
2022-09-28T21:36:28.818Z,10.50
2022-09-28T21:38:56.671Z,10.50
2022-09-28T21:41:24.994Z,10.50
2022-09-28T21:43:53.193Z,10.50
2022-09-28T21:46:21.115Z,10.50
2022-09-28T21:48:53.461Z,10.50
2022-09-28T21:51:22.757Z,10.50
2022-09-28T21:53:50.709Z,10.50
2022-09-28T21:56:18.727Z,10.50
2022-09-28T21:58:46.947Z,10.50
2022-09-28T22:01:19.370Z,10.50
2022-09-28T22:03:49.183Z,10.40
2022-09-28T22:06:18.892Z,10.50
2022-09-28T22:08:49.449Z,10.40
2022-09-28T22:11:18.953Z,10.40
2022-09-28T22:13:48.618Z,10.40
2022-09-28T22:16:18.466Z,10.40
2022-09-28T22:18:46.940Z,10.40
2022-09-28T22:21:16.576Z,10.30
2022-09-28T22:23:44.949Z,10.40
2022-09-28T22:26:17.871Z,10.40
2022-09-28T22:28:47.799Z,10.40
2022-09-28T22:31:16.170Z,10.40
2022-09-28T22:33:44.273Z,10.40
2022-09-28T22:36:14.931Z,10.40
2022-09-28T22:38:43.405Z,10.40
2022-09-28T22:41:11.783Z,10.30
2022-09-28T22:43:40.943Z,10.40
2022-09-28T22:46:10.590Z,10.30
2022-09-28T22:48:39.127Z,10.30
2022-09-28T22:51:08.064Z,10.30
2022-09-28T22:53:36.707Z,10.20
2022-09-28T22:56:05.868Z,10.20
2022-09-28T22:58:33.796Z,10.10
2022-09-28T23:01:08.740Z,10.10
2022-09-28T23:03:36.929Z,10.10
2022-09-28T23:06:05.058Z,10.10
2022-09-28T23:08:33.048Z,10.00
2022-09-28T23:11:01.344Z,10.00
2022-09-28T23:13:31.038Z,10.00
2022-09-28T23:16:00.169Z,9.90
2022-09-28T23:18:31.870Z,9.90
2022-09-28T23:21:02.406Z,9.90
2022-09-28T23:23:30.927Z,9.90
2022-09-28T23:25:59.057Z,9.90
2022-09-28T23:28:28.273Z,9.80
2022-09-28T23:30:56.105Z,9.80
2022-09-28T23:33:23.985Z,9.80
2022-09-28T23:35:53.181Z,9.80
2022-09-28T23:38:21.069Z,9.80
2022-09-28T23:40:49.170Z,9.70
2022-09-28T23:43:16.986Z,9.70
2022-09-28T23:45:44.908Z,9.70
2022-09-28T23:48:14.988Z,9.70
2022-09-28T23:50:43.858Z,9.60
2022-09-28T23:53:14.647Z,9.60
2022-09-28T23:55:43.447Z,9.60
2022-09-28T23:58:11.906Z,9.60
